Time;durP1;ratioP1;P1;durP2;ratioP2;P2;SDS_P1;SDS_P2;PMS_P1;PMS_P2;Temp;Humidity;BMP_temperature;BMP_pressure;BME280_temperature;BME280_humidity;BME280_pressure;Samples;Min_cycle;Max_cycle;Signal;HPM_P1;HPM_P2
2024/04/02 00:02:07;;;;;;;2.77;1.87;;;6.70;99.90;;;;;;5054847;28;20228;-74
2024/04/02 00:04:33;;;;;;;2.83;2.40;;;6.60;99.90;;;;;;5054118;28;20320;-74
2024/04/02 00:07:00;;;;;;;5.23;3.73;;;6.50;99.90;;;;;;5054179;28;20620;-74
2024/04/02 00:09:27;;;;;;;6.70;4.53;;;6.50;99.90;;;;;;5054155;28;20218;-73
2024/04/02 00:11:54;;;;;;;4.30;3.00;;;6.50;99.90;;;;;;5055811;28;20228;-73
2024/04/02 00:14:20;;;;;;;3.53;2.67;;;6.40;99.90;;;;;;5055201;28;20220;-74
2024/04/02 00:16:47;;;;;;;1.50;1.10;;;6.40;99.90;;;;;;5054213;28;20680;-74
2024/04/02 00:19:14;;;;;;;2.40;1.80;;;6.40;99.90;;;;;;5054598;28;20243;-74
2024/04/02 00:21:41;;;;;;;2.53;1.60;;;6.40;99.90;;;;;;5053741;28;20238;-74
2024/04/02 00:24:07;;;;;;;2.07;1.60;;;6.40;99.90;;;;;;5054127;28;20260;-74
2024/04/02 00:26:35;;;;;;;3.00;2.33;;;6.40;99.90;;;;;;5054148;28;20208;-74
2024/04/02 00:29:01;;;;;;;3.43;2.77;;;6.50;99.90;;;;;;5053761;28;20299;-73
2024/04/02 00:31:28;;;;;;;2.97;2.17;;;6.50;99.90;;;;;;5054053;28;20224;-73
2024/04/02 00:33:54;;;;;;;5.03;3.73;;;6.60;99.90;;;;;;5053657;28;20295;-74
2024/04/02 00:36:21;;;;;;;3.37;2.60;;;6.60;99.90;;;;;;5053662;28;20299;-73
2024/04/02 00:38:47;;;;;;;2.70;1.83;;;6.60;99.90;;;;;;5053615;28;20212;-73
2024/04/02 00:41:13;;;;;;;1.97;1.57;;;6.60;99.90;;;;;;5053492;28;20250;-73
2024/04/02 00:43:41;;;;;;;1.63;1.30;;;6.60;99.90;;;;;;5054627;28;20220;-74
2024/04/02 00:46:07;;;;;;;1.37;1.10;;;6.70;99.90;;;;;;5053645;28;20208;-73
2024/04/02 00:48:34;;;;;;;0.97;0.90;;;6.70;99.90;;;;;;5053137;28;20204;-74
2024/04/02 00:51:02;;;;;;;0.80;0.80;;;6.90;99.90;;;;;;5053472;28;20236;-72
2024/04/02 00:53:28;;;;;;;0.97;0.87;;;6.90;99.90;;;;;;5055120;28;20262;-73
2024/04/02 00:55:56;;;;;;;1.13;0.80;;;6.90;99.90;;;;;;5053675;28;20684;-73
2024/04/02 00:58:22;;;;;;;1.27;1.00;;;6.90;99.90;;;;;;5055403;28;20208;-73
2024/04/02 01:00:50;;;;;;;2.47;1.30;;;6.90;99.90;;;;;;5053220;28;20315;-72
2024/04/02 01:03:16;;;;;;;2.47;1.53;;;6.90;99.90;;;;;;5053383;28;20552;-73
2024/04/02 01:05:43;;;;;;;4.83;1.97;;;6.90;99.90;;;;;;5054373;28;20207;-74
2024/04/02 01:08:11;;;;;;;2.20;1.60;;;6.90;99.90;;;;;;5053671;28;20219;-74
2024/04/02 01:10:39;;;;;;;1.73;1.40;;;6.90;99.90;;;;;;5053113;28;20710;-72
2024/04/02 01:13:04;;;;;;;2.60;1.10;;;7.00;99.90;;;;;;5053262;28;20200;-74
2024/04/02 01:15:34;;;;;;;1.23;0.80;;;7.00;99.90;;;;;;5054665;28;20299;-73
2024/04/02 01:18:02;;;;;;;0.77;0.73;;;7.10;99.90;;;;;;5053262;28;20215;-72
2024/04/02 01:20:29;;;;;;;1.07;1.07;;;7.10;99.90;;;;;;5053000;28;22031;-73
2024/04/02 01:22:54;;;;;;;0.70;0.70;;;7.10;99.90;;;;;;5053406;28;20228;-73
2024/04/02 01:25:24;;;;;;;0.70;0.70;;;7.20;99.90;;;;;;5053154;28;20307;-73
2024/04/02 01:27:49;;;;;;;1.60;0.90;;;7.20;99.90;;;;;;5053214;28;20295;-73
2024/04/02 01:30:16;;;;;;;0.90;0.90;;;7.20;99.90;;;;;;5053028;28;20294;-73
2024/04/02 01:32:42;;;;;;;1.13;0.80;;;7.30;99.90;;;;;;5053316;28;20238;-73
2024/04/02 01:35:10;;;;;;;0.77;0.77;;;7.30;99.90;;;;;;5053089;28;20211;-73
2024/04/02 01:37:36;;;;;;;0.73;0.73;;;7.30;99.90;;;;;;5052785;28;20673;-74
2024/04/02 01:40:03;;;;;;;0.60;0.60;;;7.40;99.90;;;;;;5053148;28;20298;-74
2024/04/02 01:42:30;;;;;;;0.97;0.87;;;7.40;99.90;;;;;;5053018;28;20242;-74
2024/04/02 01:44:59;;;;;;;0.80;0.60;;;7.40;99.90;;;;;;5052611;28;20666;-75
2024/04/02 01:47:25;;;;;;;0.70;0.63;;;7.40;99.90;;;;;;5053106;28;20209;-74
2024/04/02 01:49:52;;;;;;;1.20;0.73;;;7.40;99.90;;;;;;5052687;28;20200;-74
2024/04/02 01:52:17;;;;;;;0.60;0.60;;;7.40;99.90;;;;;;5052670;28;20234;-74
2024/04/02 01:54:44;;;;;;;1.47;0.40;;;7.40;99.90;;;;;;5052742;28;20200;-74
2024/04/02 01:57:10;;;;;;;1.50;0.70;;;7.50;99.90;;;;;;5052763;28;20300;-74
2024/04/02 01:59:38;;;;;;;0.83;0.50;;;7.50;99.90;;;;;;5054794;28;20298;-74
2024/04/02 02:02:04;;;;;;;1.23;0.60;;;7.50;99.90;;;;;;5058664;28;20657;-74
2024/04/02 02:04:31;;;;;;;0.60;0.60;;;7.50;99.90;;;;;;5056846;28;20301;-74
2024/04/02 02:06:57;;;;;;;2.23;0.63;;;7.60;99.90;;;;;;5056786;28;20204;-74
2024/04/02 02:09:24;;;;;;;0.60;0.60;;;7.50;99.90;;;;;;5057708;28;20208;-74
2024/04/02 02:11:50;;;;;;;1.23;0.60;;;7.50;99.90;;;;;;5057064;28;20228;-75
2024/04/02 02:14:17;;;;;;;0.67;0.50;;;7.50;99.90;;;;;;5056856;28;20295;-75
2024/04/02 02:16:44;;;;;;;2.47;0.63;;;7.50;99.90;;;;;;5056878;28;20626;-75
2024/04/02 02:19:11;;;;;;;0.80;0.70;;;7.50;99.90;;;;;;5056790;28;20258;-75
2024/04/02 02:21:37;;;;;;;0.67;0.53;;;7.50;99.90;;;;;;5057388;28;20232;-76
2024/04/02 02:24:04;;;;;;;1.43;0.63;;;7.60;99.90;;;;;;5057056;28;20287;-76
2024/04/02 02:26:30;;;;;;;0.67;0.50;;;7.60;99.90;;;;;;5056356;28;20294;-75
2024/04/02 02:28:57;;;;;;;0.67;0.50;;;7.60;99.90;;;;;;5056753;28;20287;-76
2024/04/02 02:31:23;;;;;;;0.40;0.40;;;7.70;99.90;;;;;;5056720;28;20319;-76
2024/04/02 02:33:51;;;;;;;0.60;0.50;;;7.70;99.90;;;;;;5057297;28;20295;-74
2024/04/02 02:36:17;;;;;;;0.80;0.77;;;7.70;99.90;;;;;;5056241;28;20663;-75
2024/04/02 02:38:46;;;;;;;0.93;0.67;;;7.70;99.90;;;;;;5056354;28;20290;-75
2024/04/02 02:41:12;;;;;;;0.43;0.43;;;7.70;99.90;;;;;;5057136;28;20232;-75
2024/04/02 02:43:39;;;;;;;0.53;0.53;;;7.80;99.90;;;;;;5056044;28;20331;-74
2024/04/02 02:46:06;;;;;;;0.77;0.40;;;7.80;99.90;;;;;;5056196;28;20290;-75
2024/04/02 02:48:33;;;;;;;0.60;0.60;;;7.80;99.90;;;;;;5055801;28;20732;-74
2024/04/02 02:51:00;;;;;;;2.00;0.67;;;7.80;99.90;;;;;;5055768;28;20274;-74
2024/04/02 02:53:27;;;;;;;0.60;0.47;;;7.80;99.90;;;;;;5056440;28;20200;-74
2024/04/02 02:55:53;;;;;;;3.03;0.60;;;7.70;99.90;;;;;;5055783;28;20298;-74
2024/04/02 02:58:20;;;;;;;1.57;0.73;;;7.80;99.90;;;;;;5055729;28;20208;-74
2024/04/02 03:00:47;;;;;;;0.70;0.60;;;7.80;99.90;;;;;;5055251;28;20224;-74
2024/04/02 03:03:13;;;;;;;0.50;0.50;;;7.80;99.90;;;;;;5055610;28;20323;-74
2024/04/02 03:05:41;;;;;;;2.00;0.70;;;7.80;99.90;;;;;;5055373;28;20295;-74
2024/04/02 03:08:08;;;;;;;1.20;0.40;;;7.90;99.90;;;;;;5055804;28;20208;-74
2024/04/02 03:10:35;;;;;;;1.20;0.40;;;7.80;99.90;;;;;;5055243;28;20228;-74
2024/04/02 03:13:01;;;;;;;1.80;0.70;;;7.90;99.90;;;;;;5055551;28;20212;-74
2024/04/02 03:15:28;;;;;;;2.43;0.53;;;7.80;99.90;;;;;;5055365;28;20667;-73
2024/04/02 03:17:54;;;;;;;0.70;0.60;;;7.70;99.90;;;;;;5055200;28;20214;-73
2024/04/02 03:20:20;;;;;;;2.67;0.50;;;7.70;99.90;;;;;;5055048;28;20307;-73
2024/04/02 03:22:46;;;;;;;0.43;0.43;;;7.60;99.90;;;;;;5055859;28;20283;-74
2024/04/02 03:25:14;;;;;;;1.67;0.60;;;7.60;99.90;;;;;;5055178;28;20319;-74
2024/04/02 03:27:40;;;;;;;0.80;0.80;;;7.60;99.90;;;;;;5055231;28;20210;-74
2024/04/02 03:30:09;;;;;;;0.50;0.50;;;7.60;99.90;;;;;;5055021;28;20204;-75
2024/04/02 03:32:35;;;;;;;0.60;0.53;;;7.60;99.90;;;;;;5055179;28;20247;-75
2024/04/02 03:35:02;;;;;;;0.43;0.43;;;7.60;99.90;;;;;;5055322;28;20223;-74
2024/04/02 03:37:28;;;;;;;0.73;0.40;;;7.60;99.90;;;;;;5055849;28;20212;-74
2024/04/02 03:39:55;;;;;;;1.87;0.60;;;7.60;99.90;;;;;;5055002;28;20218;-74
2024/04/02 03:42:23;;;;;;;0.60;0.60;;;7.60;99.90;;;;;;5057261;28;20228;-75
2024/04/02 03:44:50;;;;;;;1.23;0.60;;;7.60;99.90;;;;;;5055090;28;20234;-75
2024/04/02 03:47:17;;;;;;;0.70;0.70;;;7.50;99.90;;;;;;5055027;28;20204;-73
2024/04/02 03:49:45;;;;;;;0.40;0.40;;;7.50;99.90;;;;;;5055519;28;20806;-74
2024/04/02 03:52:11;;;;;;;0.43;0.43;;;7.40;99.90;;;;;;5057628;28;20224;-74
2024/04/02 03:54:37;;;;;;;0.67;0.67;;;7.40;99.90;;;;;;5054433;28;20295;-74
2024/04/02 03:57:07;;;;;;;1.77;0.70;;;7.30;99.90;;;;;;5054449;28;20633;-74
2024/04/02 03:59:36;;;;;;;1.37;0.67;;;7.30;99.90;;;;;;5054808;28;20299;-74
2024/04/02 04:02:02;;;;;;;0.70;0.50;;;7.20;99.90;;;;;;5054489;28;20239;-74
2024/04/02 04:04:29;;;;;;;0.53;0.53;;;7.10;99.90;;;;;;5054599;28;20227;-74
2024/04/02 04:06:55;;;;;;;1.17;0.70;;;7.10;99.90;;;;;;5054581;28;20298;-74
2024/04/02 04:09:23;;;;;;;0.80;0.50;;;7.00;99.90;;;;;;5054061;28;20637;-74
2024/04/02 04:11:50;;;;;;;2.90;0.63;;;7.00;99.90;;;;;;5054517;28;20370;-75
2024/04/02 04:14:16;;;;;;;0.50;0.50;;;7.10;99.90;;;;;;5054134;28;20295;-74
2024/04/02 04:16:44;;;;;;;1.13;0.80;;;7.10;99.90;;;;;;5054257;28;20291;-74
2024/04/02 04:19:10;;;;;;;1.33;0.80;;;7.10;99.90;;;;;;5054143;28;20212;-75
2024/04/02 04:21:37;;;;;;;1.77;0.53;;;7.10;99.90;;;;;;5053780;28;20326;-75
2024/04/02 04:24:04;;;;;;;0.57;0.57;;;7.10;99.90;;;;;;5053968;28;20246;-75
2024/04/02 04:26:31;;;;;;;0.50;0.50;;;7.20;99.90;;;;;;5053932;28;20673;-75
2024/04/02 04:28:57;;;;;;;0.60;0.60;;;7.30;99.90;;;;;;5054630;28;20209;-74
2024/04/02 04:31:24;;;;;;;0.60;0.60;;;7.30;99.90;;;;;;5055359;28;20255;-76
2024/04/02 04:33:51;;;;;;;0.50;0.50;;;7.30;99.90;;;;;;5054213;28;20215;-75
2024/04/02 04:36:18;;;;;;;1.00;0.73;;;7.40;99.90;;;;;;5054815;28;20232;-75
2024/04/02 04:38:44;;;;;;;1.13;0.83;;;7.40;99.90;;;;;;5054080;28;20259;-75
2024/04/02 04:41:11;;;;;;;0.60;0.50;;;7.40;99.90;;;;;;5053993;28;20231;-77
2024/04/02 04:43:37;;;;;;;0.83;0.60;;;7.40;99.90;;;;;;5053981;28;20315;-77
2024/04/02 04:46:04;;;;;;;0.60;0.60;;;7.40;99.90;;;;;;5054258;28;20311;-77
2024/04/02 04:48:32;;;;;;;0.70;0.70;;;7.40;99.90;;;;;;5054451;28;20248;-77
2024/04/02 04:51:01;;;;;;;1.33;0.60;;;7.30;99.90;;;;;;5054704;28;20220;-76
2024/04/02 04:53:28;;;;;;;0.53;0.53;;;7.30;99.90;;;;;;5054755;28;20736;-75
2024/04/02 04:55:59;;;;;;;0.70;0.70;;;7.30;99.90;;;;;;5053984;28;20212;-75
2024/04/02 04:58:25;;;;;;;1.70;0.60;;;7.40;99.90;;;;;;5054902;28;20220;-75
2024/04/02 05:00:53;;;;;;;1.10;0.63;;;7.30;99.90;;;;;;5054279;28;20314;-75
2024/04/02 05:03:18;;;;;;;0.83;0.83;;;7.40;99.90;;;;;;5053594;28;20212;-75
2024/04/02 05:05:45;;;;;;;1.90;0.70;;;7.40;99.90;;;;;;5054154;28;20286;-75
2024/04/02 05:08:31;;;;;;;0.70;0.70;;;7.30;99.90;;;;;;5054608;28;20295;-76
2024/04/02 05:10:58;;;;;;;0.60;0.50;;;7.40;99.90;;;;;;5053734;28;20649;-75
2024/04/02 05:13:24;;;;;;;0.73;0.73;;;7.40;99.90;;;;;;5054083;28;20652;-76
2024/04/02 05:15:51;;;;;;;1.00;0.80;;;7.40;99.90;;;;;;5054264;28;20295;-77
2024/04/02 05:18:17;;;;;;;0.50;0.50;;;7.40;99.90;;;;;;5054078;28;20214;-76
2024/04/02 05:20:44;;;;;;;0.60;0.60;;;7.50;99.90;;;;;;5053497;28;20239;-75
2024/04/02 05:23:11;;;;;;;2.53;0.70;;;7.50;99.90;;;;;;5054775;28;20283;-77
2024/04/02 05:25:39;;;;;;;1.03;0.53;;;7.50;99.90;;;;;;5054342;28;20288;-77
2024/04/02 05:28:06;;;;;;;0.43;0.43;;;7.50;99.90;;;;;;5053379;28;20208;-76
2024/04/02 05:30:33;;;;;;;1.10;0.67;;;7.50;99.90;;;;;;5053748;28;20228;-73
2024/04/02 05:32:59;;;;;;;1.50;0.83;;;7.50;99.90;;;;;;5053402;28;20571;-75
2024/04/02 05:35:26;;;;;;;0.87;0.70;;;7.50;99.90;;;;;;5056500;28;20290;-76
2024/04/02 05:37:53;;;;;;;0.70;0.70;;;7.50;99.90;;;;;;5058455;28;20212;-75
2024/04/02 05:40:20;;;;;;;2.50;0.73;;;7.60;99.90;;;;;;5058552;28;20713;-75
2024/04/02 05:42:48;;;;;;;0.80;0.80;;;7.60;99.90;;;;;;5058384;28;20232;-76
2024/04/02 05:45:15;;;;;;;1.20;0.77;;;7.60;99.90;;;;;;5057369;28;20231;-75
2024/04/02 05:47:43;;;;;;;0.90;0.60;;;7.60;99.90;;;;;;5057279;28;20208;-75
2024/04/02 05:50:10;;;;;;;0.60;0.60;;;7.70;99.90;;;;;;5080791;22;20258;-70
2024/04/02 05:52:35;;;;;;;0.70;0.70;;;7.70;99.90;;;;;;5057341;28;20295;-71
2024/04/02 05:55:03;;;;;;;0.50;0.50;;;7.70;99.90;;;;;;5057319;28;20287;-71
2024/04/02 05:57:29;;;;;;;0.70;0.70;;;7.80;99.90;;;;;;5057333;28;20311;-71
2024/04/02 05:59:57;;;;;;;0.70;0.70;;;7.80;99.90;;;;;;5058047;28;20303;-70
2024/04/02 06:02:23;;;;;;;1.73;0.77;;;7.80;99.90;;;;;;5056940;28;20243;-70
2024/04/02 06:04:50;;;;;;;1.03;0.80;;;7.80;99.90;;;;;;5057244;28;20255;-70
2024/04/02 06:07:15;;;;;;;0.57;0.57;;;7.90;99.90;;;;;;5057083;28;20208;-71
2024/04/02 06:09:43;;;;;;;1.60;0.70;;;7.80;99.90;;;;;;5056624;28;20206;-70
2024/04/02 06:12:09;;;;;;;2.83;1.90;;;7.90;99.90;;;;;;5057003;28;20208;-67
2024/04/02 06:14:36;;;;;;;0.93;0.73;;;7.90;99.90;;;;;;5056663;28;20243;-67
2024/04/02 06:17:03;;;;;;;2.27;1.60;;;8.00;99.90;;;;;;5056825;28;20240;-67
2024/04/02 06:19:32;;;;;;;0.73;0.60;;;8.00;99.90;;;;;;5056927;28;20278;-66
2024/04/02 06:21:58;;;;;;;1.50;0.80;;;8.00;99.90;;;;;;5056376;28;20658;-71
2024/04/02 06:24:25;;;;;;;1.17;0.50;;;8.10;99.90;;;;;;5056700;28;20228;-72
2024/04/02 06:26:51;;;;;;;2.30;1.27;;;8.10;99.90;;;;;;5056794;28;20577;-72
2024/04/02 06:29:18;;;;;;;0.40;0.40;;;8.10;99.90;;;;;;5056692;28;20291;-68
2024/04/02 06:31:44;;;;;;;0.60;0.53;;;8.20;99.90;;;;;;5056222;28;20299;-70
2024/04/02 06:34:13;;;;;;;0.50;0.40;;;8.20;99.90;;;;;;5056726;28;20291;-71
2024/04/02 06:36:39;;;;;;;0.50;0.50;;;8.20;99.90;;;;;;5056428;28;20298;-71
2024/04/02 06:39:07;;;;;;;1.03;0.47;;;8.30;99.90;;;;;;5056120;28;20760;-71
2024/04/02 06:41:33;;;;;;;1.07;0.40;;;8.30;99.90;;;;;;5056540;28;20286;-71
2024/04/02 06:44:00;;;;;;;1.23;0.60;;;8.30;99.90;;;;;;5056329;28;20211;-67
2024/04/02 06:46:26;;;;;;;1.30;0.67;;;8.30;99.90;;;;;;5055270;28;20212;-69
2024/04/02 06:48:53;;;;;;;0.40;0.40;;;8.30;99.90;;;;;;5056440;28;20208;-71
2024/04/02 06:51:20;;;;;;;2.03;0.50;;;8.30;99.90;;;;;;5055978;28;20267;-72
2024/04/02 06:53:47;;;;;;;0.90;0.70;;;8.30;99.90;;;;;;5056443;28;20209;-68
2024/04/02 06:56:13;;;;;;;1.00;0.80;;;8.30;99.90;;;;;;5056365;28;20303;-69
2024/04/02 06:58:39;;;;;;;0.40;0.30;;;8.30;99.90;;;;;;5056003;28;20212;-71
2024/04/02 07:01:06;;;;;;;0.50;0.50;;;8.30;99.90;;;;;;5055822;28;20783;-70
2024/04/02 07:03:33;;;;;;;0.97;0.57;;;8.40;99.90;;;;;;5055740;28;20290;-70
2024/04/02 07:05:58;;;;;;;0.60;0.40;;;8.40;99.90;;;;;;5055682;28;20327;-70
2024/04/02 07:08:28;;;;;;;1.70;0.50;;;8.40;99.90;;;;;;5055406;28;20304;-70
2024/04/02 07:10:59;;;;;;;0.80;0.73;;;8.40;99.90;;;;;;5055257;28;20228;-70
2024/04/02 07:13:26;;;;;;;0.40;0.40;;;8.40;99.90;;;;;;5055370;28;20208;-70
2024/04/02 07:15:53;;;;;;;1.00;0.60;;;8.30;99.90;;;;;;5055751;28;20212;-71
2024/04/02 07:18:20;;;;;;;0.60;0.50;;;8.30;99.90;;;;;;5056146;28;20239;-68
2024/04/02 07:20:56;;;;;;;0.33;0.33;;;8.30;99.90;;;;;;5055240;28;20733;-67
2024/04/02 07:23:23;;;;;;;0.57;0.57;;;8.30;99.90;;;;;;5055349;28;20180;-67
2024/04/02 07:25:50;;;;;;;0.50;0.50;;;8.30;99.90;;;;;;5055408;28;20250;-68
2024/04/02 07:28:17;;;;;;;0.87;0.80;;;8.40;99.90;;;;;;5055623;28;20212;-68
2024/04/02 07:30:43;;;;;;;1.07;0.90;;;8.40;99.90;;;;;;5055662;28;20239;-68
2024/04/02 07:33:10;;;;;;;2.23;1.03;;;8.40;99.90;;;;;;5055804;28;20212;-69
2024/04/02 07:35:37;;;;;;;0.67;0.67;;;8.50;99.90;;;;;;5055334;28;20767;-69
2024/04/02 07:38:05;;;;;;;0.80;0.80;;;8.50;99.90;;;;;;5055194;28;20669;-69
2024/04/02 07:40:31;;;;;;;1.23;0.60;;;8.60;99.90;;;;;;5055221;28;20232;-69
2024/04/02 07:42:59;;;;;;;0.50;0.43;;;8.70;99.90;;;;;;5055696;28;20258;-70
2024/04/02 07:45:25;;;;;;;2.30;0.70;;;8.70;99.90;;;;;;5054778;28;20250;-69
2024/04/02 07:47:52;;;;;;;0.77;0.63;;;8.80;99.90;;;;;;5054925;28;20208;-69
2024/04/02 07:50:19;;;;;;;2.13;1.00;;;8.80;99.90;;;;;;5054893;28;20331;-68
2024/04/02 07:52:45;;;;;;;0.60;0.60;;;8.80;99.90;;;;;;5054730;28;20211;-68
2024/04/02 07:55:12;;;;;;;1.13;0.73;;;8.90;99.90;;;;;;5054720;28;20668;-68
2024/04/02 07:57:39;;;;;;;1.63;0.80;;;9.00;99.90;;;;;;5054722;28;20210;-69
2024/04/02 08:00:08;;;;;;;1.50;0.57;;;9.20;99.90;;;;;;5054658;28;20708;-68
2024/04/02 08:02:35;;;;;;;1.70;0.60;;;9.40;99.90;;;;;;5054937;28;20581;-68
2024/04/02 08:05:02;;;;;;;2.03;0.87;;;9.50;99.90;;;;;;5055334;28;20248;-68
2024/04/02 08:07:29;;;;;;;2.00;0.70;;;9.60;99.90;;;;;;5054554;28;20209;-69
2024/04/02 08:09:55;;;;;;;3.50;0.90;;;9.70;99.90;;;;;;5054522;28;20208;-69
2024/04/02 08:12:22;;;;;;;3.47;0.80;;;9.60;99.90;;;;;;5054335;28;20810;-68
2024/04/02 08:14:48;;;;;;;1.53;0.90;;;9.80;99.90;;;;;;5054582;28;20208;-68
2024/04/02 08:17:16;;;;;;;3.30;0.80;;;9.90;99.90;;;;;;5054642;28;20223;-69
2024/04/02 08:19:42;;;;;;;1.23;0.73;;;10.00;99.90;;;;;;5054363;28;20212;-69
2024/04/02 08:22:09;;;;;;;2.70;1.13;;;9.90;99.90;;;;;;5053926;28;20211;-69
2024/04/02 08:24:35;;;;;;;2.47;0.90;;;9.90;99.90;;;;;;5054085;28;20225;-69
2024/04/02 08:27:02;;;;;;;5.07;1.30;;;9.90;99.90;;;;;;5054603;28;20218;-69
2024/04/02 08:29:28;;;;;;;2.80;1.10;;;9.90;99.90;;;;;;5054198;28;20208;-69
2024/04/02 08:31:55;;;;;;;1.77;0.80;;;9.90;99.90;;;;;;5053731;28;20307;-69
2024/04/02 08:34:23;;;;;;;2.80;1.37;;;9.90;99.90;;;;;;5054250;28;20208;-69
2024/04/02 08:36:50;;;;;;;5.37;1.77;;;9.80;99.90;;;;;;5053847;28;20328;-69
2024/04/02 08:39:16;;;;;;;6.17;1.37;;;9.80;99.90;;;;;;5054145;28;20208;-69
2024/04/02 08:41:43;;;;;;;3.10;1.23;;;9.80;99.90;;;;;;5053673;28;20594;-68
2024/04/02 08:44:09;;;;;;;3.10;0.77;;;9.80;99.90;;;;;;5053985;28;20240;-68
2024/04/02 08:46:37;;;;;;;4.47;1.00;;;9.80;99.90;;;;;;5053898;28;20223;-68
2024/04/02 08:49:03;;;;;;;5.93;1.47;;;9.70;99.90;;;;;;5053717;28;20242;-68
2024/04/02 08:51:31;;;;;;;4.27;1.17;;;9.60;99.90;;;;;;5053125;28;20244;-68
2024/04/02 08:53:58;;;;;;;3.27;1.00;;;9.50;99.90;;;;;;5053557;28;20298;-68
2024/04/02 08:56:25;;;;;;;2.60;1.13;;;9.60;99.90;;;;;;5053297;28;20204;-68
2024/04/02 08:58:52;;;;;;;2.67;0.87;;;9.60;99.90;;;;;;5053866;28;20204;-68
2024/04/02 09:01:20;;;;;;;4.43;1.40;;;9.50;99.90;;;;;;5054102;28;20619;-68
2024/04/02 09:03:46;;;;;;;3.13;1.17;;;9.40;99.90;;;;;;5053848;28;20214;-68
2024/04/02 09:06:14;;;;;;;1.50;0.80;;;9.40;99.90;;;;;;5053542;28;20201;-68
2024/04/02 09:08:46;;;;;;;3.60;1.00;;;9.40;99.90;;;;;;5053131;28;20634;-68
2024/04/02 09:11:13;;;;;;;2.77;0.70;;;9.50;99.90;;;;;;5054435;28;20231;-68
2024/04/02 09:13:39;;;;;;;1.23;0.70;;;9.40;99.90;;;;;;5054018;28;20246;-69
2024/04/02 09:16:07;;;;;;;3.53;0.70;;;9.20;99.90;;;;;;5053610;28;20231;-69
2024/04/02 09:18:35;;;;;;;2.30;0.70;;;9.10;99.90;;;;;;5054378;28;20261;-68
2024/04/02 09:21:03;;;;;;;2.97;1.50;;;9.00;99.90;;;;;;5053824;28;20761;-68
2024/04/02 09:23:29;;;;;;;5.50;2.00;;;9.10;99.90;;;;;;5053953;28;20204;-68
2024/04/02 09:25:57;;;;;;;5.83;1.43;;;9.10;99.90;;;;;;5054529;28;20196;-68
2024/04/02 09:28:23;;;;;;;2.73;1.27;;;9.20;99.90;;;;;;5054080;28;20214;-69
2024/04/02 09:30:50;;;;;;;2.00;1.20;;;9.30;99.90;;;;;;5053411;28;20697;-69
2024/04/02 09:33:17;;;;;;;1.93;1.07;;;9.40;99.90;;;;;;5053300;28;20216;-69
2024/04/02 09:36:05;;;;;;;4.57;1.07;;;9.30;99.90;;;;;;5053540;28;20307;-69
2024/04/02 09:38:33;;;;;;;1.50;0.80;;;9.60;99.90;;;;;;5043167;28;20204;-69
2024/04/02 09:41:03;;;;;;;3.93;0.80;;;10.00;99.90;;;;;;5053567;28;20275;-69
2024/04/02 09:43:30;;;;;;;3.30;1.07;;;10.30;99.90;;;;;;5053789;28;20226;-69
2024/04/02 09:46:00;;;;;;;2.20;0.93;;;10.70;99.90;;;;;;5055294;28;20575;-69
2024/04/02 09:48:30;;;;;;;0.87;0.60;;;11.00;99.90;;;;;;5053710;28;20713;-69
2024/04/02 09:50:57;;;;;;;2.90;0.73;;;10.90;99.90;;;;;;5053080;28;20228;-69
2024/04/02 09:53:24;;;;;;;2.93;1.00;;;11.50;99.90;;;;;;5053205;28;20219;-69
2024/04/02 09:55:53;;;;;;;1.50;0.80;;;11.90;99.90;;;;;;5052759;28;20228;-69
2024/04/02 09:58:21;;;;;;;2.23;0.80;;;12.10;99.90;;;;;;5053010;28;20263;-69
2024/04/02 10:00:52;;;;;;;1.40;0.90;;;12.20;99.90;;;;;;5053288;28;20228;-70
2024/04/02 10:03:20;;;;;;;1.87;0.87;;;11.90;99.90;;;;;;5053378;28;20271;-69
2024/04/02 10:05:47;;;;;;;2.77;1.33;;;12.00;99.90;;;;;;5052829;28;20204;-69
2024/04/02 10:08:14;;;;;;;2.00;0.87;;;11.70;99.90;;;;;;5053514;28;20204;-68
2024/04/02 10:10:42;;;;;;;2.83;0.87;;;12.20;99.90;;;;;;5053070;28;20256;-68
2024/04/02 10:13:08;;;;;;;1.77;0.70;;;12.10;99.90;;;;;;5052909;28;20258;-68
2024/04/02 10:15:36;;;;;;;5.80;0.93;;;11.90;99.90;;;;;;5053058;28;20224;-70
2024/04/02 10:18:03;;;;;;;4.90;0.97;;;12.20;99.90;;;;;;5053037;28;20756;-71
2024/04/02 10:20:31;;;;;;;3.63;1.07;;;11.90;99.90;;;;;;5054093;28;20224;-71
2024/04/02 10:22:58;;;;;;;6.90;1.03;;;11.60;99.90;;;;;;5057195;28;20216;-71
2024/04/02 10:25:26;;;;;;;1.13;0.60;;;11.30;99.90;;;;;;5056417;28;20200;-71
2024/04/02 10:27:57;;;;;;;2.67;0.80;;;11.40;99.90;;;;;;5056757;28;20677;-70
2024/04/02 10:30:26;;;;;;;2.07;1.03;;;11.60;99.90;;;;;;5056567;28;20281;-70
2024/04/02 10:32:55;;;;;;;2.63;1.00;;;11.40;99.90;;;;;;5056740;28;20216;-70
2024/04/02 10:35:24;;;;;;;2.03;0.90;;;11.20;99.90;;;;;;5056111;28;20220;-70
2024/04/02 10:37:52;;;;;;;3.23;0.97;;;11.20;99.90;;;;;;5056486;28;20279;-70
2024/04/02 10:40:19;;;;;;;3.20;1.30;;;11.30;99.90;;;;;;5056308;28;20232;-70
2024/04/02 10:42:47;;;;;;;3.00;1.93;;;11.20;99.90;;;;;;5056274;28;20208;-70
2024/04/02 10:45:13;;;;;;;0.50;0.43;;;11.30;99.90;;;;;;5056218;28;20204;-70
2024/04/02 10:47:45;;;;;;;5.30;0.80;;;11.30;99.90;;;;;;5056210;28;20294;-70
2024/04/02 10:50:14;;;;;;;4.20;1.60;;;11.50;99.90;;;;;;5055488;28;20716;-70
2024/04/02 10:52:40;;;;;;;1.33;0.80;;;11.80;99.90;;;;;;5056065;28;20303;-70
2024/04/02 10:55:07;;;;;;;3.53;1.20;;;11.90;99.90;;;;;;5055604;28;20228;-70
2024/04/02 10:57:33;;;;;;;3.57;0.97;;;11.90;99.90;;;;;;5055383;28;20683;-70
2024/04/02 11:00:02;;;;;;;4.00;1.03;;;11.70;99.90;;;;;;5055400;28;20234;-71
2024/04/02 11:02:33;;;;;;;6.90;1.10;;;11.60;99.90;;;;;;5055547;28;20208;-71
2024/04/02 11:05:03;;;;;;;2.60;1.20;;;11.80;99.90;;;;;;5056038;28;20638;-71
2024/04/02 11:07:30;;;;;;;2.73;0.70;;;12.10;99.90;;;;;;5055345;28;20695;-71
2024/04/02 11:09:58;;;;;;;3.37;1.10;;;12.40;99.90;;;;;;5055607;28;20215;-70
2024/04/02 11:12:25;;;;;;;2.17;1.00;;;12.40;99.90;;;;;;5055659;28;20235;-70
2024/04/02 11:14:53;;;;;;;3.60;0.90;;;12.50;99.90;;;;;;5055590;28;20210;-69
2024/04/02 11:17:20;;;;;;;4.97;1.30;;;12.70;99.90;;;;;;5055570;28;20579;-71
2024/04/02 11:19:47;;;;;;;3.10;1.13;;;12.70;99.90;;;;;;5055568;28;20211;-69
2024/04/02 11:25:11;;;;;;;2.00;0.47;;;12.80;99.90;;;;;;5055738;28;20180;-69
2024/04/02 11:27:38;;;;;;;2.57;0.80;;;13.40;99.90;;;;;;5056240;28;20204;-69
2024/04/02 11:30:07;;;;;;;2.97;1.30;;;14.10;99.90;;;;;;5054902;28;20371;-70
2024/04/02 11:32:34;;;;;;;2.53;1.17;;;14.60;99.90;;;;;;5054886;28;20219;-70
2024/04/02 11:35:03;;;;;;;5.63;1.40;;;15.00;99.90;;;;;;5055479;28;20236;-70
2024/04/02 11:37:30;;;;;;;2.72;0.85;;;14.60;99.90;;;;;;5056595;28;20295;-70
2024/04/02 11:39:57;;;;;;;0.73;0.60;;;14.60;99.90;;;;;;5056500;28;20208;-70
2024/04/02 11:42:26;;;;;;;3.25;0.80;;;14.40;99.90;;;;;;5057184;28;20214;-70
2024/04/02 11:44:54;;;;;;;1.97;0.70;;;14.00;99.90;;;;;;5055976;28;20208;-70
2024/04/02 11:47:21;;;;;;;2.63;0.97;;;13.10;99.90;;;;;;5055711;28;20208;-70
2024/04/02 11:49:48;;;;;;;1.83;1.00;;;12.90;99.90;;;;;;5054756;28;20230;-70
2024/04/02 11:52:15;;;;;;;2.27;0.77;;;12.80;99.90;;;;;;5055020;28;20203;-70
2024/04/02 11:54:41;;;;;;;1.00;0.60;;;12.70;99.90;;;;;;5055209;28;20299;-70
2024/04/02 12:00:10;;;;;;;0.77;0.33;;;15.00;99.90;;;;;;5054795;28;20278;-75
2024/04/02 12:02:39;;;;;;;1.02;0.73;;;15.60;99.90;;;;;;5054736;28;20279;-75
2024/04/02 12:05:05;;;;;;;0.77;0.60;;;15.90;99.90;;;;;;5054879;28;20311;-75
2024/04/02 12:07:32;;;;;;;3.22;0.68;;;16.20;99.90;;;;;;5054825;28;20712;-74
2024/04/02 12:10:00;;;;;;;1.75;0.85;;;16.70;99.90;;;;;;5054725;28;20212;-74
2024/04/02 12:12:27;;;;;;;1.58;0.77;;;16.60;99.90;;;;;;5054875;28;20208;-74
2024/04/02 12:14:55;;;;;;;0.40;0.38;;;16.20;99.90;;;;;;5054839;28;20211;-74
2024/04/02 12:17:22;;;;;;;1.15;0.50;;;15.80;99.90;;;;;;5054692;28;20228;-74
2024/04/02 12:19:48;;;;;;;0.82;0.50;;;14.60;99.90;;;;;;5054269;28;20211;-74
2024/04/02 12:22:15;;;;;;;1.27;0.47;;;13.80;99.90;;;;;;5054508;28;20200;-73
2024/04/02 12:24:41;;;;;;;2.20;0.90;;;13.40;99.90;;;;;;5053945;28;20741;-72
2024/04/02 12:27:08;;;;;;;3.10;0.70;;;13.00;99.90;;;;;;5054201;28;20227;-72
2024/04/02 12:29:34;;;;;;;1.07;0.57;;;12.70;99.90;;;;;;5053899;28;20659;-72
2024/04/02 12:32:03;;;;;;;1.83;0.70;;;14.00;99.90;;;;;;5053719;28;20802;-72
2024/04/02 12:34:29;;;;;;;0.50;0.40;;;14.50;99.90;;;;;;5053960;28;20216;-72
2024/04/02 12:36:57;;;;;;;1.80;0.60;;;15.60;99.90;;;;;;5053970;28;20258;-72
2024/04/02 12:39:23;;;;;;;1.00;0.63;;;15.90;99.90;;;;;;5054151;28;20210;-72
2024/04/02 12:41:50;;;;;;;2.63;0.52;;;16.50;99.90;;;;;;5054060;28;20208;-72
2024/04/02 12:44:16;;;;;;;2.40;0.93;;;17.20;99.90;;;;;;5052950;28;20695;-72
2024/04/02 12:46:43;;;;;;;1.73;0.43;;;17.70;99.90;;;;;;5053968;28;20230;-71
2024/04/02 12:49:12;;;;;;;2.50;0.50;;;18.30;99.50;;;;;;5053999;28;20214;-71
2024/04/02 12:51:39;;;;;;;1.55;0.55;;;17.80;97.90;;;;;;5053864;28;20211;-72
2024/04/02 12:54:05;;;;;;;0.90;0.68;;;16.30;99.90;;;;;;5054056;28;20204;-72
2024/04/02 12:56:32;;;;;;;1.17;0.60;;;15.40;99.90;;;;;;5053458;28;20232;-71
2024/04/02 12:58:58;;;;;;;0.45;0.45;;;16.00;99.90;;;;;;5053800;28;20669;-72
2024/04/02 13:01:25;;;;;;;5.20;0.82;;;15.00;99.90;;;;;;5053776;28;20251;-72